sensor_id;sensor_type;location;lat;lon;timestamp;temperature;humidity
69598;SHT31;70000;51.176;-115.568;2023-09-19T00:01:15;16.83;28.21
69598;SHT31;70000;51.176;-115.568;2023-09-19T00:03:47;17.23;28.14
69598;SHT31;70000;51.176;-115.568;2023-09-19T00:06:20;17.29;28.96
69598;SHT31;70000;51.176;-115.568;2023-09-19T00:09:05;17.11;30.60
69598;SHT31;70000;51.176;-115.568;2023-09-19T00:11:50;16.94;29.38
69598;SHT31;70000;51.176;-115.568;2023-09-19T00:14:19;16.76;29.44
69598;SHT31;70000;51.176;-115.568;2023-09-19T00:16:52;16.64;30.15
69598;SHT31;70000;51.176;-115.568;2023-09-19T00:19:29;16.59;30.11
69598;SHT31;70000;51.176;-115.568;2023-09-19T00:22:11;16.68;31.37
69598;SHT31;70000;51.176;-115.568;2023-09-19T00:24:41;16.94;32.32
69598;SHT31;70000;51.176;-115.568;2023-09-19T00:27:20;17.27;32.30
69598;SHT31;70000;51.176;-115.568;2023-09-19T00:29:55;17.42;31.82
69598;SHT31;70000;51.176;-115.568;2023-09-19T00:32:47;17.56;31.71
69598;SHT31;70000;51.176;-115.568;2023-09-19T00:35:25;17.49;31.73
69598;SHT31;70000;51.176;-115.568;2023-09-19T00:37:55;17.25;32.07
69598;SHT31;70000;51.176;-115.568;2023-09-19T00:40:29;17.06;32.13
69598;SHT31;70000;51.176;-115.568;2023-09-19T00:43:06;16.88;32.63
69598;SHT31;70000;51.176;-115.568;2023-09-19T00:45:39;16.68;32.94
69598;SHT31;70000;51.176;-115.568;2023-09-19T00:48:16;16.47;32.95
69598;SHT31;70000;51.176;-115.568;2023-09-19T00:50:57;16.21;33.11
69598;SHT31;70000;51.176;-115.568;2023-09-19T00:56:50;15.55;35.00
69598;SHT31;70000;51.176;-115.568;2023-09-19T00:59:46;15.33;35.53
69598;SHT31;70000;51.176;-115.568;2023-09-19T01:02:38;15.18;35.85
69598;SHT31;70000;51.176;-115.568;2023-09-19T01:05:21;15.03;36.34
69598;SHT31;70000;51.176;-115.568;2023-09-19T01:11:09;14.72;36.79
69598;SHT31;70000;51.176;-115.568;2023-09-19T01:14:09;14.53;37.23
69598;SHT31;70000;51.176;-115.568;2023-09-19T01:31:42;13.48;40.01
69598;SHT31;70000;51.176;-115.568;2023-09-19T01:34:43;13.26;40.23
69598;SHT31;70000;51.176;-115.568;2023-09-19T01:37:30;13.13;40.68
69598;SHT31;70000;51.176;-115.568;2023-09-19T01:40:15;12.98;40.81
69598;SHT31;70000;51.176;-115.568;2023-09-19T01:52:29;12.16;41.97
69598;SHT31;70000;51.176;-115.568;2023-09-19T01:55:09;12.06;42.07
69598;SHT31;70000;51.176;-115.568;2023-09-19T01:57:58;12.01;42.07
69598;SHT31;70000;51.176;-115.568;2023-09-19T02:00:58;11.97;41.99
69598;SHT31;70000;51.176;-115.568;2023-09-19T02:03:31;11.93;42.34
69598;SHT31;70000;51.176;-115.568;2023-09-19T02:06:13;11.80;42.52
69598;SHT31;70000;51.176;-115.568;2023-09-19T02:08:51;11.70;42.56
69598;SHT31;70000;51.176;-115.568;2023-09-19T02:12:24;11.51;42.88
69598;SHT31;70000;51.176;-115.568;2023-09-19T02:15:25;11.37;43.14
69598;SHT31;70000;51.176;-115.568;2023-09-19T02:22:48;11.14;43.73
69598;SHT31;70000;51.176;-115.568;2023-09-19T02:29:19;10.92;44.80
69598;SHT31;70000;51.176;-115.568;2023-09-19T02:32:08;10.84;45.09
69598;SHT31;70000;51.176;-115.568;2023-09-19T02:35:00;10.72;45.41
69598;SHT31;70000;51.176;-115.568;2023-09-19T02:37:31;10.63;45.55
69598;SHT31;70000;51.176;-115.568;2023-09-19T02:40:04;10.55;45.60
69598;SHT31;70000;51.176;-115.568;2023-09-19T02:42:55;10.51;45.59
69598;SHT31;70000;51.176;-115.568;2023-09-19T02:45:45;10.44;45.75
69598;SHT31;70000;51.176;-115.568;2023-09-19T02:48:48;10.33;45.81
69598;SHT31;70000;51.176;-115.568;2023-09-19T02:51:50;10.27;45.87
69598;SHT31;70000;51.176;-115.568;2023-09-19T03:12:32;10.29;45.76
69598;SHT31;70000;51.176;-115.568;2023-09-19T03:16:48;10.21;45.41
69598;SHT31;70000;51.176;-115.568;2023-09-19T03:19:52;10.10;45.23
69598;SHT31;70000;51.176;-115.568;2023-09-19T03:22:34;10.04;45.36
69598;SHT31;70000;51.176;-115.568;2023-09-19T03:25:36;9.95;45.64
69598;SHT31;70000;51.176;-115.568;2023-09-19T03:29:04;9.83;46.11
69598;SHT31;70000;51.176;-115.568;2023-09-19T03:35:13;9.69;47.04
69598;SHT31;70000;51.176;-115.568;2023-09-19T03:47:18;9.50;46.68
69598;SHT31;70000;51.176;-115.568;2023-09-19T03:50:31;9.41;46.46
69598;SHT31;70000;51.176;-115.568;2023-09-19T04:28:47;9.27;49.14
69598;SHT31;70000;51.176;-115.568;2023-09-19T04:31:19;9.19;49.72
69598;SHT31;70000;51.176;-115.568;2023-09-19T04:34:14;9.07;50.22
69598;SHT31;70000;51.176;-115.568;2023-09-19T04:36:55;8.96;50.46
69598;SHT31;70000;51.176;-115.568;2023-09-19T04:39:36;8.85;50.81
69598;SHT31;70000;51.176;-115.568;2023-09-19T04:42:14;8.74;51.10
69598;SHT31;70000;51.176;-115.568;2023-09-19T04:45:28;8.59;51.66
69598;SHT31;70000;51.176;-115.568;2023-09-19T04:48:49;8.43;52.08
69598;SHT31;70000;51.176;-115.568;2023-09-19T04:51:54;8.33;52.50
69598;SHT31;70000;51.176;-115.568;2023-09-19T04:54:32;8.23;52.68
69598;SHT31;70000;51.176;-115.568;2023-09-19T04:57:12;8.14;53.06
69598;SHT31;70000;51.176;-115.568;2023-09-19T04:59:59;8.02;53.26
69598;SHT31;70000;51.176;-115.568;2023-09-19T05:02:46;7.98;53.30
69598;SHT31;70000;51.176;-115.568;2023-09-19T05:05:25;7.93;53.30
69598;SHT31;70000;51.176;-115.568;2023-09-19T05:07:56;7.86;53.50
69598;SHT31;70000;51.176;-115.568;2023-09-19T05:10:32;7.79;53.61
69598;SHT31;70000;51.176;-115.568;2023-09-19T05:13:10;7.74;53.66
69598;SHT31;70000;51.176;-115.568;2023-09-19T05:15:42;7.73;53.63
69598;SHT31;70000;51.176;-115.568;2023-09-19T05:18:10;7.72;53.58
69598;SHT31;70000;51.176;-115.568;2023-09-19T05:20:42;7.68;53.65
69598;SHT31;70000;51.176;-115.568;2023-09-19T05:23:17;7.59;53.75
69598;SHT31;70000;51.176;-115.568;2023-09-19T05:25:47;7.53;53.91
69598;SHT31;70000;51.176;-115.568;2023-09-19T05:28:40;7.46;53.88
69598;SHT31;70000;51.176;-115.568;2023-09-19T05:31:12;7.43;53.76
69598;SHT31;70000;51.176;-115.568;2023-09-19T05:33:56;7.38;53.60
69598;SHT31;70000;51.176;-115.568;2023-09-19T05:36:28;7.33;53.50
69598;SHT31;70000;51.176;-115.568;2023-09-19T05:38:57;7.29;53.43
69598;SHT31;70000;51.176;-115.568;2023-09-19T05:41:30;7.27;53.47
69598;SHT31;70000;51.176;-115.568;2023-09-19T05:43:59;7.20;53.55
69598;SHT31;70000;51.176;-115.568;2023-09-19T05:46:35;7.12;53.74
69598;SHT31;70000;51.176;-115.568;2023-09-19T05:49:05;7.07;53.87
69598;SHT31;70000;51.176;-115.568;2023-09-19T05:51:56;7.04;54.07
69598;SHT31;70000;51.176;-115.568;2023-09-19T05:54:26;7.01;54.35
69598;SHT31;70000;51.176;-115.568;2023-09-19T05:57:10;6.95;54.71
69598;SHT31;70000;51.176;-115.568;2023-09-19T05:59:40;6.87;54.99
69598;SHT31;70000;51.176;-115.568;2023-09-19T06:02:13;6.81;55.05
69598;SHT31;70000;51.176;-115.568;2023-09-19T06:04:57;6.77;54.98
69598;SHT31;70000;51.176;-115.568;2023-09-19T06:07:32;6.72;55.03
69598;SHT31;70000;51.176;-115.568;2023-09-19T06:10:05;6.64;55.16
69598;SHT31;70000;51.176;-115.568;2023-09-19T06:12:39;6.57;55.30
69598;SHT31;70000;51.176;-115.568;2023-09-19T06:15:16;6.50;55.54
69598;SHT31;70000;51.176;-115.568;2023-09-19T06:17:51;6.46;55.76
69598;SHT31;70000;51.176;-115.568;2023-09-19T06:20:28;6.43;55.94
69598;SHT31;70000;51.176;-115.568;2023-09-19T06:23:04;6.40;56.38
69598;SHT31;70000;51.176;-115.568;2023-09-19T06:25:34;6.35;56.99
69598;SHT31;70000;51.176;-115.568;2023-09-19T06:28:04;6.32;57.20
69598;SHT31;70000;51.176;-115.568;2023-09-19T06:30:35;6.29;57.34
69598;SHT31;70000;51.176;-115.568;2023-09-19T06:33:11;6.23;57.49
69598;SHT31;70000;51.176;-115.568;2023-09-19T06:35:49;6.19;57.64
69598;SHT31;70000;51.176;-115.568;2023-09-19T06:38:25;6.13;57.78
69598;SHT31;70000;51.176;-115.568;2023-09-19T06:40:55;6.08;57.87
69598;SHT31;70000;51.176;-115.568;2023-09-19T06:43:25;6.08;57.84
69598;SHT31;70000;51.176;-115.568;2023-09-19T06:45:58;6.08;57.72
69598;SHT31;70000;51.176;-115.568;2023-09-19T06:48:29;6.08;57.67
69598;SHT31;70000;51.176;-115.568;2023-09-19T06:51:01;6.09;57.62
69598;SHT31;70000;51.176;-115.568;2023-09-19T06:53:33;6.05;57.59
69598;SHT31;70000;51.176;-115.568;2023-09-19T06:56:04;6.01;57.61
69598;SHT31;70000;51.176;-115.568;2023-09-19T06:58:34;5.98;57.64
69598;SHT31;70000;51.176;-115.568;2023-09-19T07:01:05;5.93;57.55
69598;SHT31;70000;51.176;-115.568;2023-09-19T07:03:35;5.90;57.63
69598;SHT31;70000;51.176;-115.568;2023-09-19T07:06:06;5.83;57.87
69598;SHT31;70000;51.176;-115.568;2023-09-19T07:08:38;5.78;58.04
69598;SHT31;70000;51.176;-115.568;2023-09-19T07:11:09;5.73;58.35
69598;SHT31;70000;51.176;-115.568;2023-09-19T07:13:41;5.71;58.55
69598;SHT31;70000;51.176;-115.568;2023-09-19T07:16:12;5.69;58.58
69598;SHT31;70000;51.176;-115.568;2023-09-19T07:18:55;5.62;58.59
69598;SHT31;70000;51.176;-115.568;2023-09-19T07:21:25;5.58;58.71
69598;SHT31;70000;51.176;-115.568;2023-09-19T07:23:56;5.55;58.69
69598;SHT31;70000;51.176;-115.568;2023-09-19T07:26:29;5.51;58.86
69598;SHT31;70000;51.176;-115.568;2023-09-19T07:28:59;5.44;58.94
69598;SHT31;70000;51.176;-115.568;2023-09-19T07:31:32;5.41;58.98
69598;SHT31;70000;51.176;-115.568;2023-09-19T07:34:01;5.37;58.95
69598;SHT31;70000;51.176;-115.568;2023-09-19T07:36:35;5.30;59.11
69598;SHT31;70000;51.176;-115.568;2023-09-19T07:39:06;5.17;59.20
69598;SHT31;70000;51.176;-115.568;2023-09-19T07:41:48;5.13;59.26
69598;SHT31;70000;51.176;-115.568;2023-09-19T07:44:18;5.11;59.19
69598;SHT31;70000;51.176;-115.568;2023-09-19T07:46:50;5.09;59.29
69598;SHT31;70000;51.176;-115.568;2023-09-19T07:49:21;5.08;59.34
69598;SHT31;70000;51.176;-115.568;2023-09-19T07:51:51;5.06;59.41
69598;SHT31;70000;51.176;-115.568;2023-09-19T07:54:22;5.06;59.40
69598;SHT31;70000;51.176;-115.568;2023-09-19T07:56:52;5.05;59.42
69598;SHT31;70000;51.176;-115.568;2023-09-19T07:59:37;5.03;59.39
69598;SHT31;70000;51.176;-115.568;2023-09-19T08:02:10;5.02;59.33
69598;SHT31;70000;51.176;-115.568;2023-09-19T08:04:53;5.00;59.30
69598;SHT31;70000;51.176;-115.568;2023-09-19T08:07:25;4.96;59.33
69598;SHT31;70000;51.176;-115.568;2023-09-19T08:09:56;4.93;59.42
69598;SHT31;70000;51.176;-115.568;2023-09-19T08:15:37;4.87;59.40
69598;SHT31;70000;51.176;-115.568;2023-09-19T08:18:15;4.85;59.41
69598;SHT31;70000;51.176;-115.568;2023-09-19T08:20:52;4.82;59.49
69598;SHT31;70000;51.176;-115.568;2023-09-19T08:23:23;4.79;59.61
69598;SHT31;70000;51.176;-115.568;2023-09-19T08:25:56;4.73;59.68
69598;SHT31;70000;51.176;-115.568;2023-09-19T08:28:31;4.71;59.71
69598;SHT31;70000;51.176;-115.568;2023-09-19T08:31:04;4.69;59.72
69598;SHT31;70000;51.176;-115.568;2023-09-19T08:33:39;4.67;59.80
69598;SHT31;70000;51.176;-115.568;2023-09-19T08:36:16;4.65;59.80
69598;SHT31;70000;51.176;-115.568;2023-09-19T08:38:46;4.62;59.88
69598;SHT31;70000;51.176;-115.568;2023-09-19T08:41:17;4.52;60.10
69598;SHT31;70000;51.176;-115.568;2023-09-19T08:47:19;4.44;60.23
69598;SHT31;70000;51.176;-115.568;2023-09-19T08:50:09;4.43;60.20
69598;SHT31;70000;51.176;-115.568;2023-09-19T08:52:47;4.43;60.10
69598;SHT31;70000;51.176;-115.568;2023-09-19T08:55:23;4.36;60.16
69598;SHT31;70000;51.176;-115.568;2023-09-19T08:57:59;4.27;60.22
69598;SHT31;70000;51.176;-115.568;2023-09-19T09:00:32;4.21;60.35
69598;SHT31;70000;51.176;-115.568;2023-09-19T09:03:04;4.18;60.36
69598;SHT31;70000;51.176;-115.568;2023-09-19T09:05:38;4.15;60.47
69598;SHT31;70000;51.176;-115.568;2023-09-19T09:08:15;4.13;60.54
69598;SHT31;70000;51.176;-115.568;2023-09-19T09:14:19;4.05;60.83
69598;SHT31;70000;51.176;-115.568;2023-09-19T09:16:52;4.02;60.98
69598;SHT31;70000;51.176;-115.568;2023-09-19T09:19:26;4.02;60.98
69598;SHT31;70000;51.176;-115.568;2023-09-19T09:22:06;4.03;60.96
69598;SHT31;70000;51.176;-115.568;2023-09-19T09:24:37;3.99;60.84
69598;SHT31;70000;51.176;-115.568;2023-09-19T09:27:29;3.99;60.88
69598;SHT31;70000;51.176;-115.568;2023-09-19T09:30:01;4.03;60.74
69598;SHT31;70000;51.176;-115.568;2023-09-19T09:32:31;4.07;60.86
69598;SHT31;70000;51.176;-115.568;2023-09-19T09:35:07;4.03;61.20
69598;SHT31;70000;51.176;-115.568;2023-09-19T09:37:42;3.97;61.55
69598;SHT31;70000;51.176;-115.568;2023-09-19T09:40:15;3.95;61.60
69598;SHT31;70000;51.176;-115.568;2023-09-19T09:43:01;3.89;61.69
69598;SHT31;70000;51.176;-115.568;2023-09-19T09:45:31;3.79;61.89
69598;SHT31;70000;51.176;-115.568;2023-09-19T09:48:01;3.83;61.82
69598;SHT31;70000;51.176;-115.568;2023-09-19T09:50:49;3.73;61.69
69598;SHT31;70000;51.176;-115.568;2023-09-19T09:53:25;3.65;61.82
69598;SHT31;70000;51.176;-115.568;2023-09-19T09:56:05;3.65;61.62
69598;SHT31;70000;51.176;-115.568;2023-09-19T09:58:51;3.66;61.41
69598;SHT31;70000;51.176;-115.568;2023-09-19T10:01:23;3.61;61.36
69598;SHT31;70000;51.176;-115.568;2023-09-19T10:03:58;3.57;61.14
69598;SHT31;70000;51.176;-115.568;2023-09-19T10:06:39;3.47;61.18
69598;SHT31;70000;51.176;-115.568;2023-09-19T10:09:16;3.42;61.32
69598;SHT31;70000;51.176;-115.568;2023-09-19T10:11:48;3.38;61.37
69598;SHT31;70000;51.176;-115.568;2023-09-19T10:14:42;3.32;61.36
69598;SHT31;70000;51.176;-115.568;2023-09-19T10:17:14;3.30;61.40
69598;SHT31;70000;51.176;-115.568;2023-09-19T10:22:33;3.24;61.47
69598;SHT31;70000;51.176;-115.568;2023-09-19T10:25:04;3.25;61.41
69598;SHT31;70000;51.176;-115.568;2023-09-19T10:27:38;3.21;61.49
69598;SHT31;70000;51.176;-115.568;2023-09-19T10:30:14;3.18;61.44
69598;SHT31;70000;51.176;-115.568;2023-09-19T10:32:46;3.08;61.58
69598;SHT31;70000;51.176;-115.568;2023-09-19T10:35:21;3.03;61.66
69598;SHT31;70000;51.176;-115.568;2023-09-19T10:37:53;3.01;61.58
69598;SHT31;70000;51.176;-115.568;2023-09-19T10:40:29;2.99;61.55
69598;SHT31;70000;51.176;-115.568;2023-09-19T10:43:04;2.97;61.51
69598;SHT31;70000;51.176;-115.568;2023-09-19T10:45:45;2.91;61.62
69598;SHT31;70000;51.176;-115.568;2023-09-19T10:48:17;2.90;61.64
69598;SHT31;70000;51.176;-115.568;2023-09-19T10:53:53;2.86;61.73
69598;SHT31;70000;51.176;-115.568;2023-09-19T10:56:32;2.81;61.80
69598;SHT31;70000;51.176;-115.568;2023-09-19T10:59:09;2.77;61.83
69598;SHT31;70000;51.176;-115.568;2023-09-19T11:01:46;2.74;61.88
69598;SHT31;70000;51.176;-115.568;2023-09-19T11:10:43;2.61;62.02
69598;SHT31;70000;51.176;-115.568;2023-09-19T11:13:29;2.54;62.27
69598;SHT31;70000;51.176;-115.568;2023-09-19T11:16:06;2.57;62.22
69598;SHT31;70000;51.176;-115.568;2023-09-19T11:24:27;2.60;62.42
69598;SHT31;70000;51.176;-115.568;2023-09-19T11:27:10;2.58;62.33
69598;SHT31;70000;51.176;-115.568;2023-09-19T11:29:41;2.50;62.37
69598;SHT31;70000;51.176;-115.568;2023-09-19T11:32:12;2.51;62.43
69598;SHT31;70000;51.176;-115.568;2023-09-19T11:35:08;2.49;62.59
69598;SHT31;70000;51.176;-115.568;2023-09-19T11:38:01;2.51;62.68
69598;SHT31;70000;51.176;-115.568;2023-09-19T11:40:33;2.50;62.87
69598;SHT31;70000;51.176;-115.568;2023-09-19T11:43:28;2.47;63.15
69598;SHT31;70000;51.176;-115.568;2023-09-19T11:49:26;2.47;62.64
69598;SHT31;70000;51.176;-115.568;2023-09-19T11:52:00;2.43;62.59
69598;SHT31;70000;51.176;-115.568;2023-09-19T11:54:45;2.41;62.19
69598;SHT31;70000;51.176;-115.568;2023-09-19T11:57:21;2.36;62.11
69598;SHT31;70000;51.176;-115.568;2023-09-19T11:59:53;2.32;62.36
69598;SHT31;70000;51.176;-115.568;2023-09-19T12:02:41;2.28;62.91
69598;SHT31;70000;51.176;-115.568;2023-09-19T12:07:44;2.12;64.16
69598;SHT31;70000;51.176;-115.568;2023-09-19T12:10:16;2.06;64.61
69598;SHT31;70000;51.176;-115.568;2023-09-19T12:12:52;2.03;64.80
69598;SHT31;70000;51.176;-115.568;2023-09-19T12:15:28;2.01;64.80
69598;SHT31;70000;51.176;-115.568;2023-09-19T12:21:23;1.94;64.96
69598;SHT31;70000;51.176;-115.568;2023-09-19T12:27:00;1.99;65.00
69598;SHT31;70000;51.176;-115.568;2023-09-19T12:29:42;1.98;64.94
69598;SHT31;70000;51.176;-115.568;2023-09-19T12:33:00;2.03;64.52
69598;SHT31;70000;51.176;-115.568;2023-09-19T12:35:32;2.03;64.35
69598;SHT31;70000;51.176;-115.568;2023-09-19T12:38:06;2.01;64.25
69598;SHT31;70000;51.176;-115.568;2023-09-19T12:40:38;1.99;64.12
69598;SHT31;70000;51.176;-115.568;2023-09-19T12:43:09;1.96;64.16
69598;SHT31;70000;51.176;-115.568;2023-09-19T12:45:42;1.93;64.56
69598;SHT31;70000;51.176;-115.568;2023-09-19T12:53:41;1.91;65.09
69598;SHT31;70000;51.176;-115.568;2023-09-19T12:56:18;1.92;65.07
69598;SHT31;70000;51.176;-115.568;2023-09-19T12:59:36;1.93;65.00
69598;SHT31;70000;51.176;-115.568;2023-09-19T13:02:06;1.93;65.01
69598;SHT31;70000;51.176;-115.568;2023-09-19T13:08:21;1.93;64.99
69598;SHT31;70000;51.176;-115.568;2023-09-19T13:11:05;1.93;65.09
69598;SHT31;70000;51.176;-115.568;2023-09-19T13:13:44;1.90;65.18
69598;SHT31;70000;51.176;-115.568;2023-09-19T13:16:59;1.91;65.30
69598;SHT31;70000;51.176;-115.568;2023-09-19T13:19:50;1.88;65.45
69598;SHT31;70000;51.176;-115.568;2023-09-19T13:25:40;1.93;65.38
69598;SHT31;70000;51.176;-115.568;2023-09-19T13:28:12;1.95;65.28
69598;SHT31;70000;51.176;-115.568;2023-09-19T13:34:19;1.96;65.16
69598;SHT31;70000;51.176;-115.568;2023-09-19T13:37:19;2.03;65.10
69598;SHT31;70000;51.176;-115.568;2023-09-19T13:43:58;2.07;65.28
69598;SHT31;70000;51.176;-115.568;2023-09-19T13:47:30;2.01;65.42
69598;SHT31;70000;51.176;-115.568;2023-09-19T13:50:55;1.98;65.69
69598;SHT31;70000;51.176;-115.568;2023-09-19T13:53:43;2.00;65.56
69598;SHT31;70000;51.176;-115.568;2023-09-19T14:00:35;2.01;65.30
69598;SHT31;70000;51.176;-115.568;2023-09-19T14:03:15;1.99;65.25
69598;SHT31;70000;51.176;-115.568;2023-09-19T14:06:07;2.02;65.17
69598;SHT31;70000;51.176;-115.568;2023-09-19T14:08:57;2.05;65.16
69598;SHT31;70000;51.176;-115.568;2023-09-19T14:11:52;2.04;65.28
69598;SHT31;70000;51.176;-115.568;2023-09-19T14:14:27;2.05;65.30
69598;SHT31;70000;51.176;-115.568;2023-09-19T14:17:38;2.08;65.36
69598;SHT31;70000;51.176;-115.568;2023-09-19T14:20:47;2.10;65.33
69598;SHT31;70000;51.176;-115.568;2023-09-19T14:35:51;2.62;64.92
69598;SHT31;70000;51.176;-115.568;2023-09-19T14:38:59;2.68;64.70
69598;SHT31;70000;51.176;-115.568;2023-09-19T14:41:43;2.76;64.35
69598;SHT31;70000;51.176;-115.568;2023-09-19T14:44:41;2.83;64.16
69598;SHT31;70000;51.176;-115.568;2023-09-19T14:47:13;2.87;63.93
69598;SHT31;70000;51.176;-115.568;2023-09-19T14:49:50;2.90;63.70
69598;SHT31;70000;51.176;-115.568;2023-09-19T14:52:19;2.96;63.54
69598;SHT31;70000;51.176;-115.568;2023-09-19T14:54:51;3.01;63.38
69598;SHT31;70000;51.176;-115.568;2023-09-19T14:57:21;3.07;63.20
69598;SHT31;70000;51.176;-115.568;2023-09-19T14:59:53;3.12;63.20
69598;SHT31;70000;51.176;-115.568;2023-09-19T15:02:39;3.15;63.18
69598;SHT31;70000;51.176;-115.568;2023-09-19T15:05:44;3.23;63.05
69598;SHT31;70000;51.176;-115.568;2023-09-19T15:15:11;3.48;62.61
69598;SHT31;70000;51.176;-115.568;2023-09-19T15:18:12;3.57;62.34
69598;SHT31;70000;51.176;-115.568;2023-09-19T15:21:09;3.67;61.99
69598;SHT31;70000;51.176;-115.568;2023-09-19T15:24:10;3.76;61.80
69598;SHT31;70000;51.176;-115.568;2023-09-19T15:32:13;4.02;60.75
69598;SHT31;70000;51.176;-115.568;2023-09-19T15:35:22;4.09;60.36
69598;SHT31;70000;51.176;-115.568;2023-09-19T15:38:22;4.19;60.19
69598;SHT31;70000;51.176;-115.568;2023-09-19T15:41:06;4.29;59.83
69598;SHT31;70000;51.176;-115.568;2023-09-19T15:43:49;4.39;59.67
69598;SHT31;70000;51.176;-115.568;2023-09-19T15:46:50;4.50;59.50
69598;SHT31;70000;51.176;-115.568;2023-09-19T15:49:32;4.59;59.31
69598;SHT31;70000;51.176;-115.568;2023-09-19T15:52:43;4.72;59.21
69598;SHT31;70000;51.176;-115.568;2023-09-19T15:55:55;4.77;58.75
69598;SHT31;70000;51.176;-115.568;2023-09-19T15:58:30;4.80;59.05
69598;SHT31;70000;51.176;-115.568;2023-09-19T16:01:31;4.90;58.93
69598;SHT31;70000;51.176;-115.568;2023-09-19T16:04:33;5.01;58.74
69598;SHT31;70000;51.176;-115.568;2023-09-19T16:07:25;5.11;58.60
69598;SHT31;70000;51.176;-115.568;2023-09-19T16:10:20;5.21;58.44
69598;SHT31;70000;51.176;-115.568;2023-09-19T16:13:23;5.34;58.22
69598;SHT31;70000;51.176;-115.568;2023-09-19T16:16:12;5.44;57.73
69598;SHT31;70000;51.176;-115.568;2023-09-19T16:18:53;5.53;57.63
69598;SHT31;70000;51.176;-115.568;2023-09-19T16:21:53;5.61;57.63
69598;SHT31;70000;51.176;-115.568;2023-09-19T16:24:35;5.70;57.38
69598;SHT31;70000;51.176;-115.568;2023-09-19T16:27:35;5.82;57.24
69598;SHT31;70000;51.176;-115.568;2023-09-19T16:30:42;5.91;56.83
69598;SHT31;70000;51.176;-115.568;2023-09-19T16:33:45;5.99;56.81
69598;SHT31;70000;51.176;-115.568;2023-09-19T16:36:30;6.10;56.55
69598;SHT31;70000;51.176;-115.568;2023-09-19T16:42:48;6.37;56.13
69598;SHT31;70000;51.176;-115.568;2023-09-19T16:45:24;6.49;56.06
69598;SHT31;70000;51.176;-115.568;2023-09-19T16:48:13;6.63;55.80
69598;SHT31;70000;51.176;-115.568;2023-09-19T16:50:43;6.74;55.60
69598;SHT31;70000;51.176;-115.568;2023-09-19T16:53:43;6.89;55.35
69598;SHT31;70000;51.176;-115.568;2023-09-19T16:56:32;7.02;54.91
69598;SHT31;70000;51.176;-115.568;2023-09-19T16:59:11;7.14;54.60
69598;SHT31;70000;51.176;-115.568;2023-09-19T17:01:59;7.25;54.21
69598;SHT31;70000;51.176;-115.568;2023-09-19T17:04:42;7.34;53.68
69598;SHT31;70000;51.176;-115.568;2023-09-19T17:07:54;7.37;53.31
69598;SHT31;70000;51.176;-115.568;2023-09-19T17:11:05;7.44;53.08
69598;SHT31;70000;51.176;-115.568;2023-09-19T17:14:26;7.58;52.97
69598;SHT31;70000;51.176;-115.568;2023-09-19T17:17:31;7.72;52.68
69598;SHT31;70000;51.176;-115.568;2023-09-19T17:20:45;7.86;52.29
69598;SHT31;70000;51.176;-115.568;2023-09-19T17:23:53;8.04;51.22
69598;SHT31;70000;51.176;-115.568;2023-09-19T17:30:19;8.37;50.07
69598;SHT31;70000;51.176;-115.568;2023-09-19T17:33:13;8.52;49.35
69598;SHT31;70000;51.176;-115.568;2023-09-19T17:36:26;8.66;48.77
69598;SHT31;70000;51.176;-115.568;2023-09-19T17:39:43;8.80;48.48
69598;SHT31;70000;51.176;-115.568;2023-09-19T18:00:52;10.06;44.14
69598;SHT31;70000;51.176;-115.568;2023-09-19T18:03:22;10.15;44.31
69598;SHT31;70000;51.176;-115.568;2023-09-19T18:05:56;10.27;43.64
69598;SHT31;70000;51.176;-115.568;2023-09-19T18:08:39;10.37;43.53
69598;SHT31;70000;51.176;-115.568;2023-09-19T18:11:15;10.50;43.53
69598;SHT31;70000;51.176;-115.568;2023-09-19T18:14:07;10.60;43.09
69598;SHT31;70000;51.176;-115.568;2023-09-19T18:16:55;10.70;43.20
69598;SHT31;70000;51.176;-115.568;2023-09-19T18:49:14;12.19;38.38
69598;SHT31;70000;51.176;-115.568;2023-09-19T18:52:37;12.22;38.16
69598;SHT31;70000;51.176;-115.568;2023-09-19T18:55:23;12.20;37.69
69598;SHT31;70000;51.176;-115.568;2023-09-19T18:58:11;12.22;37.60
69598;SHT31;70000;51.176;-115.568;2023-09-19T19:01:13;12.16;37.23
69598;SHT31;70000;51.176;-115.568;2023-09-19T19:08:20;12.07;37.43
69598;SHT31;70000;51.176;-115.568;2023-09-19T19:14:51;12.09;37.12
69598;SHT31;70000;51.176;-115.568;2023-09-19T19:22:00;12.19;36.60
69598;SHT31;70000;51.176;-115.568;2023-09-19T19:25:18;12.14;36.00
69598;SHT31;70000;51.176;-115.568;2023-09-19T19:29:20;12.17;36.36
69598;SHT31;70000;51.176;-115.568;2023-09-19T19:37:01;12.31;35.47
69598;SHT31;70000;51.176;-115.568;2023-09-19T19:39:31;12.31;35.16
69598;SHT31;70000;51.176;-115.568;2023-09-19T19:42:02;12.31;35.20
69598;SHT31;70000;51.176;-115.568;2023-09-19T19:47:47;12.32;34.57
69598;SHT31;70000;51.176;-115.568;2023-09-19T19:50:17;12.40;34.90
69598;SHT31;70000;51.176;-115.568;2023-09-19T19:52:50;12.47;34.87
69598;SHT31;70000;51.176;-115.568;2023-09-19T19:55:24;12.49;34.48
69598;SHT31;70000;51.176;-115.568;2023-09-19T19:57:57;12.52;35.00
69598;SHT31;70000;51.176;-115.568;2023-09-19T20:00:27;12.53;34.91
69598;SHT31;70000;51.176;-115.568;2023-09-19T20:02:59;12.47;34.48
69598;SHT31;70000;51.176;-115.568;2023-09-19T20:05:28;12.49;34.52
69598;SHT31;70000;51.176;-115.568;2023-09-19T20:08:00;12.53;34.38
69598;SHT31;70000;51.176;-115.568;2023-09-19T20:10:31;12.58;34.51
69598;SHT31;70000;51.176;-115.568;2023-09-19T20:13:02;12.64;34.28
69598;SHT31;70000;51.176;-115.568;2023-09-19T20:15:34;12.65;34.38
69598;SHT31;70000;51.176;-115.568;2023-09-19T20:18:28;12.62;34.07
69598;SHT31;70000;51.176;-115.568;2023-09-19T20:21:08;12.62;34.40
69598;SHT31;70000;51.176;-115.568;2023-09-19T20:23:41;12.66;34.64
69598;SHT31;70000;51.176;-115.568;2023-09-19T20:26:16;12.66;34.80
69598;SHT31;70000;51.176;-115.568;2023-09-19T20:28:55;12.73;35.05
69598;SHT31;70000;51.176;-115.568;2023-09-19T20:31:25;12.75;35.05
69598;SHT31;70000;51.176;-115.568;2023-09-19T20:33:59;12.73;35.01
69598;SHT31;70000;51.176;-115.568;2023-09-19T20:36:31;12.66;35.09
69598;SHT31;70000;51.176;-115.568;2023-09-19T20:39:07;12.53;35.41
69598;SHT31;70000;51.176;-115.568;2023-09-19T20:41:38;12.52;35.73
69598;SHT31;70000;51.176;-115.568;2023-09-19T20:44:10;12.53;36.01
69598;SHT31;70000;51.176;-115.568;2023-09-19T20:46:41;12.49;36.11
69598;SHT31;70000;51.176;-115.568;2023-09-19T20:51:57;12.40;36.93
69598;SHT31;70000;51.176;-115.568;2023-09-19T20:54:54;12.35;36.85
69598;SHT31;70000;51.176;-115.568;2023-09-19T20:57:52;12.36;36.99
69598;SHT31;70000;51.176;-115.568;2023-09-19T21:00:54;12.35;37.28
69598;SHT31;70000;51.176;-115.568;2023-09-19T21:03:58;12.27;37.49